Time;durP1;ratioP1;P1;durP2;ratioP2;P2;SDS_P1;SDS_P2;PMS_P1;PMS_P2;Temp;Humidity;BMP_temperature;BMP_pressure;BME280_temperature;BME280_humidity;BME280_pressure;Samples;Min_cycle;Max_cycle;Signal;HPM_P1;HPM_P2
2022/04/24 00:00:42;;;;;;;2.30;2.10;;;;;;;20.46;37.27;95539.03;10327005;28;20476;-50
2022/04/24 00:06:02;;;;;;;2.90;1.92;;;;;;;20.44;37.26;95527.00;10328515;28;20043;-48
2022/04/24 00:11:22;;;;;;;1.83;1.73;;;;;;;20.44;37.37;95516.19;10324693;28;20448;-50
2022/04/24 00:16:41;;;;;;;1.90;1.75;;;;;;;20.42;37.28;95518.47;10344109;28;20065;-49
2022/04/24 00:22:01;;;;;;;2.22;2.03;;;;;;;20.41;37.34;95506.09;10327977;28;20057;-50
2022/04/24 00:27:20;;;;;;;3.03;1.90;;;;;;;20.40;37.33;95508.00;10314748;28;20058;-48
2022/04/24 00:32:39;;;;;;;2.97;1.90;;;;;;;20.39;37.34;95503.75;10304935;28;20384;-51
2022/04/24 00:37:59;;;;;;;1.95;1.70;;;;;;;20.38;37.41;95490.59;10328088;28;20050;-51
2022/04/24 00:43:19;;;;;;;1.92;1.70;;;;;;;20.35;37.46;95476.66;10328782;28;20062;-51
2022/04/24 00:48:58;;;;;;;3.20;1.77;;;;;;;20.35;37.46;95470.47;10322077;28;20054;-49
2022/04/24 00:54:17;;;;;;;1.90;1.80;;;;;;;20.33;37.49;95460.00;10329004;28;20108;-49
2022/04/24 00:59:37;;;;;;;2.05;1.80;;;;;;;20.31;37.55;95442.59;10323563;28;20050;-51
2022/04/24 01:04:57;;;;;;;2.13;1.67;;;;;;;20.30;37.54;95441.78;10322635;28;20062;-48
2022/04/24 01:10:17;;;;;;;2.10;1.75;;;;;;;20.28;37.58;95425.13;10328447;28;20493;-51
2022/04/24 01:15:36;;;;;;;2.03;1.80;;;;;;;20.27;37.59;95429.00;10325878;28;20528;-48
2022/04/24 01:20:55;;;;;;;1.95;1.85;;;;;;;20.26;37.60;95413.91;10330772;28;20496;-50
2022/04/24 01:26:15;;;;;;;2.00;1.90;;;;;;;20.25;37.62;95417.00;10323023;28;20135;-48
2022/04/24 01:31:34;;;;;;;1.90;1.80;;;;;;;20.25;37.69;95411.56;10316058;28;20065;-49
2022/04/24 01:36:54;;;;;;;2.30;2.10;;;;;;;20.23;37.55;95403.81;10313300;28;20054;-48
2022/04/24 01:42:14;;;;;;;1.70;1.60;;;;;;;20.22;37.72;95399.53;10334421;28;20666;-48
2022/04/24 01:47:33;;;;;;;1.65;1.55;;;;;;;20.21;37.79;95378.25;10298622;28;20054;-51
2022/04/24 01:52:53;;;;;;;2.08;1.77;;;;;;;20.20;37.76;95372.09;10339872;28;20100;-48
2022/04/24 01:58:12;;;;;;;1.70;1.60;;;;;;;20.19;37.75;95364.31;10318199;28;20054;-51
2022/04/24 02:03:32;;;;;;;1.80;1.60;;;;;;;20.17;37.86;95359.31;10323306;28;20054;-51
2022/04/24 02:08:51;;;;;;;2.30;1.80;;;;;;;20.16;37.78;95355.03;10337450;28;20038;-48
2022/04/24 02:14:11;;;;;;;2.03;1.70;;;;;;;20.15;37.82;95353.47;10328578;28;20509;-50
2022/04/24 02:19:31;;;;;;;1.77;1.67;;;;;;;20.12;37.91;95352.25;10337229;28;20076;-51
2022/04/24 02:24:52;;;;;;;1.98;1.77;;;;;;;20.12;37.92;95365.00;10328907;28;20161;-48
2022/04/24 02:30:12;;;;;;;1.95;1.75;;;;;;;20.12;37.82;95354.97;10325494;28;20062;-51
2022/04/24 02:35:31;;;;;;;2.35;1.90;;;;;;;20.09;37.90;95346.78;10341443;28;20045;-51
2022/04/24 02:40:51;;;;;;;1.92;1.60;;;;;;;20.09;37.93;95346.78;10335709;28;20042;-48
2022/04/24 02:46:11;;;;;;;1.67;1.50;;;;;;;20.08;37.97;95353.38;10333646;28;20058;-48
2022/04/24 02:51:30;;;;;;;1.70;1.60;;;;;;;20.06;37.92;95351.00;10325611;28;20485;-51
2022/04/24 02:56:50;;;;;;;2.03;1.90;;;;;;;20.05;37.91;95344.06;10333923;28;20065;-50
2022/04/24 03:02:09;;;;;;;2.25;1.70;;;;;;;20.04;38.09;95334.38;10319644;28;20050;-48
2022/04/24 03:07:29;;;;;;;1.60;1.50;;;;;;;20.03;37.99;95340.13;10320543;28;20054;-51
2022/04/24 03:12:48;;;;;;;1.65;1.55;;;;;;;20.02;38.04;95336.66;10331250;28;20059;-48
2022/04/24 03:18:08;;;;;;;2.03;1.70;;;;;;;20.00;38.10;95328.13;10348031;28;20053;-48
2022/04/24 03:23:27;;;;;;;1.60;1.50;;;;;;;20.00;38.15;95335.47;10329368;28;20053;-48
2022/04/24 03:28:46;;;;;;;1.73;1.63;;;;;;;19.99;38.13;95314.97;10344524;28;20089;-48
2022/04/24 03:34:06;;;;;;;1.73;1.63;;;;;;;19.98;38.16;95305.31;10331549;28;20053;-48
2022/04/24 03:39:25;;;;;;;1.67;1.58;;;;;;;19.97;38.08;95292.94;10332178;28;20058;-50
2022/04/24 03:44:44;;;;;;;1.95;1.75;;;;;;;19.94;38.20;95283.66;10327299;28;20417;-49
2022/04/24 03:50:05;;;;;;;1.65;1.50;;;;;;;19.94;38.18;95275.53;10334280;28;20046;-48
2022/04/24 03:55:25;;;;;;;1.58;1.48;;;;;;;19.93;38.20;95282.88;10329054;28;20046;-48
2022/04/24 04:00:45;;;;;;;1.70;1.60;;;;;;;19.93;38.13;95290.19;10330305;28;20034;-49
2022/04/24 04:06:04;;;;;;;1.70;1.60;;;;;;;19.91;38.11;95289.75;10322767;28;20064;-48
2022/04/24 04:11:24;;;;;;;1.60;1.50;;;;;;;19.90;38.31;95289.00;10339135;28;20398;-49
2022/04/24 04:16:44;;;;;;;1.50;1.40;;;;;;;19.89;38.23;95292.06;10316884;28;20046;-49
2022/04/24 04:22:04;;;;;;;1.88;1.75;;;;;;;19.89;38.29;95298.22;10330831;28;20050;-51
2022/04/24 04:27:26;;;;;;;1.55;1.45;;;;;;;19.88;38.30;95299.38;10336235;28;20054;-51
2022/04/24 04:32:45;;;;;;;1.70;1.60;;;;;;;19.87;38.59;95297.03;10338633;28;20546;-48
2022/04/24 04:38:06;;;;;;;1.73;1.63;;;;;;;19.86;38.78;95287.38;10337100;28;20498;-49
2022/04/24 04:43:29;;;;;;;1.48;1.38;;;;;;;19.86;38.84;95279.28;10339257;28;20517;-48
2022/04/24 04:48:49;;;;;;;2.78;1.58;;;;;;;19.85;38.97;95264.19;10335844;28;20054;-49
2022/04/24 04:54:09;;;;;;;1.50;1.40;;;;;;;19.84;38.85;95249.13;10331286;28;20058;-51
2022/04/24 04:59:28;;;;;;;1.60;1.50;;;;;;;19.83;39.08;95248.34;10325366;28;20058;-48
2022/04/24 05:04:47;;;;;;;2.65;1.50;;;;;;;19.81;39.11;95237.09;10340556;28;20053;-48
2022/04/24 05:10:08;;;;;;;1.70;1.60;;;;;;;19.81;39.32;95231.72;10329235;28;20121;-48
2022/04/24 05:15:27;;;;;;;2.38;1.60;;;;;;;19.81;39.47;95241.75;10325767;28;20055;-48
2022/04/24 05:20:46;;;;;;;1.70;1.60;;;;;;;19.81;39.44;95253.31;10327761;28;20074;-48
2022/04/24 05:26:06;;;;;;;1.70;1.60;;;;;;;19.79;39.54;95244.81;10324565;28;20080;-50
2022/04/24 05:31:25;;;;;;;2.30;1.63;;;;;;;19.79;39.60;95234.00;10318942;28;20100;-51
2022/04/24 05:36:44;;;;;;;1.60;1.50;;;;;;;19.78;39.83;95224.34;10317038;28;20112;-48
2022/04/24 05:42:04;;;;;;;1.60;1.50;;;;;;;19.78;39.83;95215.44;10343671;28;20104;-49
2022/04/24 05:47:24;;;;;;;1.50;1.40;;;;;;;19.78;40.04;95205.44;10337068;28;20497;-49
2022/04/24 05:52:44;;;;;;;1.80;1.60;;;;;;;19.77;40.02;95189.56;10331670;28;20476;-49
2022/04/24 05:58:04;;;;;;;1.52;1.40;;;;;;;19.76;40.13;95186.09;10341926;28;20045;-48
2022/04/24 06:03:24;;;;;;;1.73;1.40;;;;;;;19.75;40.08;95174.50;10332035;28;20049;-50
2022/04/24 06:08:43;;;;;;;3.38;1.50;;;;;;;19.75;40.07;95171.03;10310467;28;20058;-47
2022/04/24 06:14:03;;;;;;;2.00;1.80;;;;;;;19.74;40.07;95175.66;10329903;28;20055;-50
2022/04/24 06:19:22;;;;;;;2.10;1.90;;;;;;;19.74;40.16;95183.75;10334994;28;20035;-48
2022/04/24 06:24:42;;;;;;;1.58;1.48;;;;;;;19.74;40.32;95188.38;10341744;28;20088;-47
2022/04/24 06:30:02;;;;;;;3.92;1.98;;;;;;;19.73;40.29;95197.63;10332980;28;20090;-49
2022/04/24 06:35:22;;;;;;;1.88;1.77;;;;;;;19.72;40.44;95207.66;10323012;28;20058;-48
2022/04/24 06:40:41;;;;;;;1.60;1.50;;;;;;;19.72;40.42;95206.88;10327602;28;20050;-50
2022/04/24 06:46:01;;;;;;;1.90;1.70;;;;;;;19.71;40.47;95205.28;10355635;28;20121;-48
2022/04/24 06:51:21;;;;;;;1.70;1.60;;;;;;;19.71;40.54;95210.69;10323950;28;20046;-49
2022/04/24 06:56:40;;;;;;;1.70;1.60;;;;;;;19.71;40.79;95211.50;10328394;28;20042;-49
2022/04/24 07:02:00;;;;;;;1.90;1.70;;;;;;;19.70;40.87;95204.50;10323873;28;20060;-51
2022/04/24 07:07:19;;;;;;;1.90;1.80;;;;;;;19.70;40.97;95201.03;10320406;28;20120;-48
2022/04/24 07:12:49;;;;;;;1.92;1.77;;;;;;;19.69;41.07;95210.28;10320697;28;20505;-49
2022/04/24 07:18:10;;;;;;;3.13;1.70;;;;;;;19.68;41.12;95236.50;10330574;28;20054;-49
2022/04/24 07:23:30;;;;;;;2.33;1.77;;;;;;;19.68;41.27;95254.63;10330780;28;20529;-48
2022/04/24 07:28:50;;;;;;;2.22;2.03;;;;;;;19.67;41.25;95259.25;10332146;28;20440;-48
2022/04/24 07:34:09;;;;;;;4.43;2.20;;;;;;;19.67;41.32;95253.09;10333465;28;20050;-49
2022/04/24 07:39:31;;;;;;;3.90;2.47;;;;;;;19.65;41.55;95234.53;10348400;28;20034;-48
2022/04/24 07:44:51;;;;;;;4.00;2.53;;;;;;;19.65;41.50;95226.41;10327054;28;20108;-49
2022/04/24 07:50:11;;;;;;;7.22;3.03;;;;;;;19.65;41.63;95206.75;10314786;28;20089;-48
2022/04/24 07:55:30;;;;;;;5.15;3.08;;;;;;;19.66;41.78;95210.97;10336929;28;20085;-49
2022/04/24 08:00:50;;;;;;;8.55;5.65;;;;;;;19.66;41.68;95197.47;10346468;28;20050;-48
2022/04/24 08:06:10;;;;;;;11.60;10.30;;;;;;;19.38;40.74;95200.53;10323442;28;20062;-48
2022/04/24 08:11:30;;;;;;;11.85;10.75;;;;;;;19.03;41.26;95196.09;10346070;28;20045;-50
2022/04/24 08:16:49;;;;;;;13.90;12.52;;;;;;;18.53;42.13;95191.31;10347537;28;20042;-48
2022/04/24 08:22:09;;;;;;;13.65;12.35;;;;;;;17.86;44.11;95180.72;10333752;28;20054;-50
2022/04/24 08:27:28;;;;;;;13.60;12.23;;;;;;;17.86;44.24;95169.16;10326270;28;20050;-47
2022/04/24 08:32:48;;;;;;;13.50;11.95;;;;;;;17.80;44.45;95174.03;10344368;28;20475;-48
2022/04/24 08:38:08;;;;;;;13.10;11.70;;;;;;;17.83;44.51;95170.59;10335046;28;20063;-49
2022/04/24 08:43:27;;;;;;;12.77;11.48;;;;;;;17.75;44.79;95161.59;10332850;28;20042;-48
2022/04/24 08:48:47;;;;;;;12.57;11.32;;;;;;;17.81;44.70;95158.63;10333546;28;20202;-49
2022/04/24 08:54:07;;;;;;;9.50;8.07;;;;;;;18.11;43.69;95154.31;10342713;28;20042;-50
2022/04/24 08:59:26;;;;;;;8.07;6.82;;;;;;;18.48;43.17;95142.28;10345227;28;20092;-47
2022/04/24 09:04:46;;;;;;;7.10;6.40;;;;;;;18.72;43.16;95139.28;10329839;28;20132;-47
2022/04/24 09:10:09;;;;;;;6.82;6.13;;;;;;;18.87;42.88;95148.41;10311049;28;20050;-48
2022/04/24 09:15:32;;;;;;;7.22;5.88;;;;;;;19.00;42.76;95157.13;10329144;28;20101;-46
2022/04/24 09:20:55;;;;;;;6.40;5.78;;;;;;;19.09;42.67;95160.34;10328624;28;20778;-49
2022/04/24 09:26:16;;;;;;;6.13;5.50;;;;;;;19.17;42.63;95166.66;10341045;28;20042;-48
2022/04/24 09:31:35;;;;;;;7.30;5.88;;;;;;;19.25;42.88;95167.53;10323500;28;20719;-48
2022/04/24 09:37:03;;;;;;;10.48;9.48;;;;;;;19.25;42.59;95170.22;10326935;28;20050;-48
2022/04/24 09:42:22;;;;;;;7.68;6.47;;;;;;;19.28;43.45;95169.50;10331311;28;20485;-49
2022/04/24 09:47:42;;;;;;;7.28;6.18;;;;;;;19.35;43.58;95169.63;10320871;28;20457;-49
2022/04/24 09:53:03;;;;;;;7.32;5.50;;;;;;;19.45;43.71;95165.53;10328130;28;20050;-48
2022/04/24 09:58:22;;;;;;;7.43;5.43;;;;;;;19.51;43.72;95174.88;10319144;28;20096;-49
2022/04/24 10:03:42;;;;;;;7.68;5.28;;;;;;;19.56;43.73;95153.75;10328563;28;20065;-49
2022/04/24 10:09:04;;;;;;;6.63;5.65;;;;;;;19.62;44.07;95159.63;10326688;28;20054;-47
2022/04/24 10:14:24;;;;;;;6.18;5.57;;;;;;;19.68;44.04;95150.06;10327355;28;20046;-47
2022/04/24 10:20:18;;;;;;;5.85;5.00;;;;;;;19.76;44.45;95156.38;10341151;28;20168;-48
2022/04/24 10:25:42;;;;;;;12.65;10.93;;;;;;;19.58;44.25;95147.19;10309460;28;20562;-50
2022/04/24 10:31:03;;;;;;;12.32;11.05;;;;;;;19.40;44.47;95138.84;10322151;28;20078;-51
2022/04/24 10:36:23;;;;;;;12.13;10.90;;;;;;;19.28;44.96;95135.19;10326428;28;20050;-48
2022/04/24 10:41:57;;;;;;;11.82;10.63;;;;;;;19.23;45.21;95132.81;10324490;28;20134;-50
2022/04/24 10:47:17;;;;;;;10.90;9.80;;;;;;;19.15;45.41;95141.91;10326344;28;20555;-49
2022/04/24 10:52:45;;;;;;;9.93;8.80;;;;;;;19.26;44.97;95123.19;10324920;28;20449;-51
2022/04/24 10:58:05;;;;;;;;;;;;;;;19.50;44.86;95117.41;10335123;28;20060;-49
2022/04/24 11:03:38;;;;;;;16.05;9.98;;;;;;;19.69;44.31;95127.28;10324076;28;20376;-50
2022/04/24 11:09:12;;;;;;;15.25;10.52;;;;;;;19.81;44.36;95122.84;10350999;28;20042;-49
2022/04/24 11:14:31;;;;;;;17.98;10.85;;;;;;;19.89;44.07;95129.91;10333766;28;20055;-49
2022/04/24 11:19:59;;;;;;;14.05;10.43;;;;;;;19.95;44.11;95137.34;10334498;28;20064;-48
2022/04/24 11:25:24;;;;;;;16.20;10.98;;;;;;;20.02;44.19;95127.75;10323943;28;20161;-51
2022/04/24 11:30:44;;;;;;;37.08;18.42;;;;;;;20.06;44.53;95129.34;10332686;28;20133;-48
2022/04/24 11:36:05;;;;;;;25.10;13.50;;;;;;;20.08;46.55;95137.88;10341826;28;20042;-48
2022/04/24 11:41:28;;;;;;;26.63;12.55;;;;;;;20.15;47.14;95137.97;10329614;28;20410;-50
2022/04/24 11:52:25;;;;;;;14.17;10.93;;;;;;;19.92;45.38;95158.91;10319337;28;20074;-50
2022/04/24 11:57:55;;;;;;;8.77;7.78;;;;;;;19.78;45.12;95191.13;10332711;28;20074;-49
2022/04/24 12:03:14;;;;;;;7.45;6.72;;;;;;;19.81;44.63;95190.41;10324239;28;20099;-49
2022/04/24 12:08:43;;;;;;;7.90;5.93;;;;;;;19.98;44.76;95197.97;10327809;28;20493;-51
2022/04/24 12:14:10;;;;;;;7.83;5.53;;;;;;;20.12;44.70;95202.81;10322715;28;20054;-49
2022/04/24 12:19:29;;;;;;;6.78;5.65;;;;;;;20.23;44.68;95203.72;10318750;28;20050;-48
2022/04/24 12:24:49;;;;;;;17.73;9.02;;;;;;;20.32;44.72;95204.19;10328791;28;20114;-48
2022/04/24 12:30:09;;;;;;;5.32;4.82;;;;;;;20.21;43.92;95207.91;10307903;28;20062;-51
2022/04/24 12:35:33;;;;;;;4.20;3.80;;;;;;;20.11;43.53;95209.34;10330625;28;20667;-52
2022/04/24 12:40:57;;;;;;;16.13;6.47;;;;;;;20.21;43.54;95202.50;10343470;28;20132;-52
2022/04/24 12:46:18;;;;;;;12.23;4.57;;;;;;;20.31;44.03;95208.06;10331795;28;20054;-49
2022/04/24 12:51:38;;;;;;;12.40;5.10;;;;;;;20.42;44.04;95189.25;10330726;28;20054;-50
2022/04/24 12:56:58;;;;;;;4.40;2.83;;;;;;;20.33;43.34;95172.56;10327461;28;20050;-51
2022/04/24 13:02:19;;;;;;;4.18;2.00;;;;;;;20.27;42.69;95177.50;10313706;28;20058;-48
2022/04/24 13:07:39;;;;;;;2.80;2.22;;;;;;;20.39;42.87;95162.19;10328224;28;20510;-50
2022/04/24 13:13:01;;;;;;;4.20;2.30;;;;;;;20.48;43.05;95159.94;10330997;28;20070;-51
2022/04/24 13:18:21;;;;;;;4.10;2.20;;;;;;;20.56;43.09;95164.28;10339161;28;20054;-48
2022/04/24 13:23:41;;;;;;;4.20;2.85;;;;;;;20.58;42.75;95167.44;10329271;28;20378;-51
2022/04/24 13:29:01;;;;;;;3.15;2.88;;;;;;;20.50;42.45;95179.28;10331751;28;20502;-51
2022/04/24 13:34:20;;;;;;;2.50;2.22;;;;;;;20.52;42.29;95177.81;10329072;28;20054;-50
2022/04/24 13:39:41;;;;;;;2.97;2.30;;;;;;;20.59;42.51;95217.69;10328773;28;20054;-52
2022/04/24 13:45:02;;;;;;;5.72;2.72;;;;;;;20.66;42.60;95217.78;10323239;28;20252;-52
2022/04/24 13:50:21;;;;;;;3.08;2.13;;;;;;;20.71;42.82;95219.38;10340866;28;20099;-52
2022/04/24 13:55:41;;;;;;;2.45;2.10;;;;;;;20.73;42.83;95228.69;10327875;28;20051;-51
2022/04/24 14:01:01;;;;;;;3.25;2.42;;;;;;;20.78;42.93;95224.09;10325079;28;20084;-51
2022/04/24 14:06:22;;;;;;;2.53;2.28;;;;;;;20.81;42.98;95223.34;10327579;28;20054;-50
2022/04/24 14:11:43;;;;;;;2.42;2.22;;;;;;;20.84;42.99;95220.69;10311353;28;20484;-50
2022/04/24 14:17:03;;;;;;;2.60;2.30;;;;;;;20.89;43.26;95227.69;10323275;28;20377;-52
2022/04/24 14:22:23;;;;;;;3.30;2.40;;;;;;;20.91;43.20;95234.31;10326955;28;20058;-52
2022/04/24 14:27:43;;;;;;;2.30;2.10;;;;;;;20.95;43.13;95247.84;10328565;28;20054;-51
2022/04/24 14:33:03;;;;;;;2.70;2.42;;;;;;;20.99;43.22;95245.97;10327381;28;20065;-49
2022/04/24 14:38:22;;;;;;;2.47;2.28;;;;;;;21.04;42.99;95245.66;10323273;28;20405;-52
2022/04/24 14:43:42;;;;;;;2.45;2.22;;;;;;;21.05;42.77;95241.78;10326783;28;20047;-52
2022/04/24 15:00:32;;;;;;;3.87;2.27;;;;;;;21.14;42.75;95247.66;10321058;28;20046;-51
2022/04/24 15:05:55;;;;;;;2.50;2.20;;;;;;;21.16;42.67;95244.59;10325571;28;20505;-49
2022/04/24 15:11:14;;;;;;;3.20;2.47;;;;;;;21.18;42.59;95244.22;10326258;28;20724;-51
2022/04/24 15:16:34;;;;;;;2.33;2.13;;;;;;;21.19;42.71;95256.59;10337565;28;20042;-50
2022/04/24 15:21:55;;;;;;;3.25;2.30;;;;;;;21.22;42.60;95255.88;10327253;28;20050;-48
2022/04/24 15:27:15;;;;;;;2.45;2.25;;;;;;;21.24;42.63;95261.69;10324847;28;20047;-51
2022/04/24 15:32:35;;;;;;;2.67;2.38;;;;;;;21.25;42.69;95271.41;10323956;28;20074;-51
2022/04/24 15:37:55;;;;;;;2.47;2.28;;;;;;;21.27;42.61;95288.81;10327133;28;20075;-49
2022/04/24 15:43:15;;;;;;;2.60;2.40;;;;;;;21.29;42.51;95283.03;10333532;28;20042;-49
2022/04/24 15:48:35;;;;;;;3.25;2.20;;;;;;;21.29;42.55;95294.66;10328259;28;20053;-51
2022/04/24 15:53:54;;;;;;;3.30;2.20;;;;;;;21.28;42.71;95298.50;10328614;28;20050;-49
2022/04/24 15:59:14;;;;;;;2.45;2.25;;;;;;;21.28;42.55;95303.91;10333118;28;20050;-51
2022/04/24 16:04:34;;;;;;;2.55;2.20;;;;;;;21.30;42.66;95311.66;10330279;28;20050;-51
2022/04/24 16:09:53;;;;;;;2.78;2.30;;;;;;;21.30;42.65;95314.38;10339424;28;20062;-50
2022/04/24 16:15:13;;;;;;;2.55;2.00;;;;;;;21.31;42.59;95305.88;10324546;28;20051;-52
2022/04/24 16:20:33;;;;;;;3.42;2.25;;;;;;;21.33;42.64;95305.53;10344530;28;20529;-52
2022/04/24 16:25:55;;;;;;;3.00;2.45;;;;;;;21.33;42.51;95300.88;10323924;28;20047;-52
2022/04/24 16:31:15;;;;;;;4.47;2.70;;;;;;;21.33;42.41;95302.81;10331407;28;20421;-49
2022/04/24 16:36:35;;;;;;;4.95;4.55;;;;;;;21.16;39.99;95311.53;10352094;28;20045;-52
2022/04/24 16:41:55;;;;;;;7.47;4.85;;;;;;;20.63;39.44;95317.84;10330727;28;20143;-52
2022/04/24 16:47:15;;;;;;;5.03;4.53;;;;;;;20.46;40.00;95317.22;10342948;28;20052;-52
2022/04/24 17:03:51;;;;;;;3.53;3.22;;;;;;;20.74;40.63;95330.38;10322194;28;20053;-52
2022/04/24 17:09:11;;;;;;;4.05;3.50;;;;;;;20.86;40.44;95332.06;10333378;28;20055;-52
2022/04/24 17:14:31;;;;;;;2.97;2.75;;;;;;;20.94;40.47;95332.94;10336816;28;20502;-52
2022/04/24 17:19:53;;;;;;;3.42;3.13;;;;;;;20.99;40.88;95335.31;10329207;28;20389;-51
2022/04/24 17:25:13;;;;;;;3.35;3.08;;;;;;;21.05;41.04;95339.28;10345712;28;20390;-51
2022/04/24 17:30:34;;;;;;;3.63;2.80;;;;;;;21.08;41.15;95324.22;10343487;28;20085;-51
2022/04/24 17:35:54;;;;;;;3.08;2.83;;;;;;;21.09;41.18;95320.34;10315467;28;20074;-51
2022/04/24 17:41:16;;;;;;;3.50;3.20;;;;;;;21.12;41.16;95331.22;10310614;28;20109;-52
2022/04/24 17:46:36;;;;;;;4.07;2.83;;;;;;;21.15;41.19;95345.97;10322899;28;20053;-52
2022/04/24 17:51:55;;;;;;;4.05;3.65;;;;;;;21.19;40.67;95337.84;10360251;28;20113;-52
2022/04/24 17:57:16;;;;;;;4.35;3.28;;;;;;;21.23;40.66;95325.13;10344900;28;20050;-51
2022/04/24 18:02:37;;;;;;;3.28;2.70;;;;;;;21.23;40.78;95333.25;10328254;28;20109;-51
2022/04/24 18:07:57;;;;;;;3.20;2.90;;;;;;;21.22;40.84;95331.72;10326863;28;20058;-52
2022/04/24 18:13:17;;;;;;;3.58;2.90;;;;;;;21.25;40.92;95344.53;10331066;28;20481;-52
2022/04/24 18:18:37;;;;;;;3.58;2.90;;;;;;;21.25;41.26;95348.00;10316455;28;20054;-51
2022/04/24 18:23:59;;;;;;;7.60;6.78;;;;;;;21.01;39.62;95362.00;10326461;28;20180;-49
2022/04/24 18:29:20;;;;;;;8.30;6.60;;;;;;;20.74;39.56;95338.50;10320891;28;20189;-52
2022/04/24 18:34:40;;;;;;;7.10;6.40;;;;;;;20.48;39.29;95354.72;10320898;28;20470;-52
2022/04/24 18:39:59;;;;;;;7.82;6.57;;;;;;;20.24;39.54;95359.41;10348222;28;20062;-52
2022/04/24 18:45:19;;;;;;;5.70;5.13;;;;;;;20.26;39.61;95365.22;10323651;28;20556;-49
2022/04/24 18:50:39;;;;;;;6.72;4.72;;;;;;;20.62;40.59;95370.41;10322032;28;20054;-49
2022/04/24 18:55:58;;;;;;;5.18;4.40;;;;;;;20.85;40.69;95373.03;10325645;28;20465;-52
2022/04/24 19:01:19;;;;;;;4.78;4.18;;;;;;;20.99;40.66;95378.63;10312931;28;20486;-49
2022/04/24 19:12:17;;;;;;;7.55;4.55;;;;;;;21.15;40.79;95394.69;10321892;28;20065;-49
2022/04/24 19:17:37;;;;;;;4.60;4.20;;;;;;;21.20;40.75;95399.78;10332306;28;20540;-51
2022/04/24 19:22:58;;;;;;;5.93;4.30;;;;;;;21.25;40.75;95396.75;10339536;28;20058;-52
2022/04/24 19:28:17;;;;;;;4.45;3.90;;;;;;;21.29;40.81;95400.28;10327244;28;20056;-52
2022/04/24 19:33:37;;;;;;;5.63;4.07;;;;;;;21.32;40.83;95396.03;10342817;28;20057;-49
2022/04/24 19:38:57;;;;;;;4.25;3.85;;;;;;;21.35;40.85;95394.53;10303141;28;20386;-50
2022/04/24 19:44:17;;;;;;;4.57;3.78;;;;;;;21.36;40.85;95396.88;10314114;28;20108;-52
2022/04/24 19:49:41;;;;;;;4.90;3.60;;;;;;;21.38;40.71;95393.78;10319356;28;20176;-49
2022/04/24 19:55:01;;;;;;;4.45;3.53;;;;;;;21.38;40.85;95391.09;10308420;28;20098;-51
2022/04/24 20:00:21;;;;;;;4.28;3.42;;;;;;;21.39;40.88;95404.25;10305531;28;20069;-51
2022/04/24 20:05:41;;;;;;;3.92;3.50;;;;;;;21.39;40.89;95406.97;10324358;28;20493;-49
2022/04/24 20:11:01;;;;;;;4.20;3.80;;;;;;;21.41;40.89;95404.66;10324035;28;20089;-50
2022/04/24 20:16:22;;;;;;;5.03;3.72;;;;;;;21.40;40.90;95411.22;10330421;28;20053;-51
2022/04/24 20:21:42;;;;;;;3.58;3.28;;;;;;;21.40;40.94;95408.50;10323110;28;20161;-52
2022/04/24 20:27:01;;;;;;;4.00;3.60;;;;;;;21.41;40.95;95407.38;10317289;28;20046;-50
2022/04/24 20:32:21;;;;;;;4.18;3.35;;;;;;;21.41;41.14;95404.66;10333222;28;20098;-50
2022/04/24 20:37:40;;;;;;;4.68;3.30;;;;;;;21.42;41.37;95411.63;10337663;28;20037;-51
2022/04/24 20:43:04;;;;;;;3.65;3.35;;;;;;;21.41;41.48;95415.50;10316821;28;20081;-49
2022/04/24 20:48:24;;;;;;;3.53;3.10;;;;;;;21.41;41.79;95420.16;10317423;28;20062;-49
2022/04/24 20:53:43;;;;;;;4.63;3.42;;;;;;;21.40;41.84;95426.72;10324176;28;20375;-51
2022/04/24 20:59:05;;;;;;;3.72;3.40;;;;;;;21.40;41.88;95435.59;10340890;28;20033;-50
2022/04/24 21:04:25;;;;;;;4.40;3.40;;;;;;;21.40;42.04;95446.44;10320708;28;20057;-50
2022/04/24 21:09:45;;;;;;;6.03;3.50;;;;;;;21.40;42.10;95441.03;10311616;28;20050;-50
2022/04/24 21:15:06;;;;;;;5.45;3.92;;;;;;;21.39;42.21;95444.91;10322285;28;20051;-51
2022/04/24 21:20:25;;;;;;;5.40;3.70;;;;;;;21.40;42.24;95445.66;10326100;28;20046;-51
2022/04/24 21:25:45;;;;;;;5.82;3.80;;;;;;;21.37;42.28;95449.91;10320208;28;20679;-50
2022/04/24 21:31:05;;;;;;;6.40;3.60;;;;;;;21.38;42.26;95448.75;10336104;28;20044;-51
2022/04/24 21:36:25;;;;;;;4.30;3.22;;;;;;;21.37;42.26;95451.84;10326562;28;20061;-51
2022/04/24 21:41:44;;;;;;;6.30;3.95;;;;;;;21.37;42.29;95452.63;10329014;28;20078;-52
2022/04/24 21:47:04;;;;;;;6.32;4.05;;;;;;;21.36;42.46;95453.75;10343316;28;20057;-52
2022/04/24 21:52:24;;;;;;;5.60;3.97;;;;;;;21.35;42.36;95449.50;10329692;28;20062;-52
2022/04/24 21:57:44;;;;;;;4.60;3.47;;;;;;;21.33;42.37;95460.69;10328458;28;20132;-49
2022/04/24 22:08:43;;;;;;;5.40;3.47;;;;;;;21.32;42.23;95466.47;10313055;28;20453;-51
2022/04/24 22:14:02;;;;;;;5.65;3.80;;;;;;;21.30;42.25;95471.47;10316521;28;20051;-51
2022/04/24 22:19:24;;;;;;;4.00;3.30;;;;;;;21.30;42.42;95468.78;10325919;28;20043;-52
2022/04/24 22:24:44;;;;;;;4.55;3.58;;;;;;;21.27;42.32;95459.47;10318652;28;20576;-51
2022/04/24 22:30:04;;;;;;;4.93;3.90;;;;;;;21.28;42.62;95471.06;10306978;28;20066;-49
2022/04/24 22:35:24;;;;;;;4.78;3.35;;;;;;;21.27;42.48;95485.78;10332679;28;20054;-51
2022/04/24 22:40:44;;;;;;;6.47;3.97;;;;;;;21.26;42.56;95484.19;10295295;28;20058;-49
2022/04/24 22:46:04;;;;;;;4.40;3.75;;;;;;;21.25;42.71;95477.22;10345108;28;20077;-49
2022/04/24 22:51:23;;;;;;;4.63;3.80;;;;;;;21.23;42.82;95474.88;10322475;28;20490;-50
2022/04/24 22:56:43;;;;;;;5.38;3.80;;;;;;;21.23;42.84;95480.31;10326536;28;20058;-52
2022/04/24 23:02:03;;;;;;;4.65;3.65;;;;;;;21.22;42.92;95478.72;10327983;28;20061;-52
2022/04/24 23:07:23;;;;;;;4.63;3.40;;;;;;;21.20;42.96;95474.84;10328440;28;20054;-50
2022/04/24 23:12:42;;;;;;;5.22;3.20;;;;;;;21.19;43.00;95475.97;10321268;28;164911;-51
2022/04/24 23:23:41;;;;;;;4.37;3.20;;;;;;;21.17;43.13;95470.13;10281056;28;20059;-52
2022/04/24 23:29:01;;;;;;;3.92;3.00;;;;;;;21.16;43.04;95474.00;10295406;28;20639;-52
2022/04/24 23:34:22;;;;;;;5.32;3.15;;;;;;;21.14;43.21;95471.66;10304979;28;20043;-49
2022/04/24 23:39:42;;;;;;;4.28;3.17;;;;;;;21.14;43.14;95482.50;10278887;28;20509;-52
2022/04/24 23:45:01;;;;;;;3.90;3.25;;;;;;;21.11;43.11;95478.59;10274160;28;20050;-51
2022/04/24 23:50:21;;;;;;;4.60;3.08;;;;;;;21.11;43.11;95483.22;10287513;28;20109;-49
2022/04/24 23:55:42;;;;;;;4.18;3.25;;;;;;;21.09;43.17;95486.31;10296747;28;20598;-50
